Time;durP1;ratioP1;P1;durP2;ratioP2;P2;SDS_P1;SDS_P2;PMS_P1;PMS_P2;Temp;Humidity;BMP_temperature;BMP_pressure;BME280_temperature;BME280_humidity;BME280_pressure;Samples;Min_cycle;Max_cycle;Signal;HPM_P1;HPM_P2
2022/12/30 00:00:34;;;;;;;102.25;54.28;;;;;;;0.85;100.00;100716.38;5055982;28;20471;-70
2022/12/30 00:02:59;;;;;;;103.03;55.08;;;;;;;1.08;100.00;100751.47;5064586;27;20055;-70
2022/12/30 00:05:25;;;;;;;93.32;51.97;;;;;;;0.95;100.00;100723.00;5066795;28;20027;-70
2022/12/30 00:07:50;;;;;;;104.65;53.80;;;;;;;1.10;100.00;100746.13;5064990;28;20587;-70
2022/12/30 00:10:15;;;;;;;104.53;53.42;;;;;;;1.14;100.00;100739.78;5066401;28;20060;-70
2022/12/30 00:35:12;;;;;;;92.85;49.35;;;;;;;1.56;100.00;100736.13;5068119;28;20039;-68
2022/12/30 00:37:38;;;;;;;91.50;47.95;;;;;;;1.58;100.00;100730.78;5069554;28;20020;-69
2022/12/30 00:40:03;;;;;;;97.20;50.17;;;;;;;1.61;100.00;100728.84;5069845;28;20028;-68
2022/12/30 00:45:13;;;;;;;85.47;46.17;;;;;;;1.72;100.00;100734.53;5069958;28;20705;-69
2022/12/30 00:47:38;;;;;;;80.60;46.13;;;;;;;1.74;100.00;100732.66;5069460;28;20048;-69
2022/12/30 00:58:16;;;;;;;73.50;42.22;;;;;;;1.96;100.00;100737.81;5069290;28;20060;-68
2022/12/30 01:00:41;;;;;;;74.13;42.40;;;;;;;1.89;100.00;100720.50;5069448;28;20147;-68
2022/12/30 01:03:07;;;;;;;80.57;43.95;;;;;;;2.00;100.00;100734.97;5069076;28;20032;-69
2022/12/30 01:05:32;;;;;;;76.75;41.83;;;;;;;1.97;100.00;100719.22;5069078;28;20090;-68
2022/12/30 01:07:58;;;;;;;73.50;43.42;;;;;;;2.07;100.00;100717.03;5069123;28;20031;-68
2022/12/30 01:10:23;;;;;;;76.18;40.70;;;;;;;2.09;100.00;100733.66;5069176;28;20052;-68
2022/12/30 01:12:49;;;;;;;72.75;40.33;;;;;;;1.98;100.00;100705.09;5068955;28;20455;-68
2022/12/30 01:15:14;;;;;;;69.93;37.95;;;;;;;2.15;100.00;100725.44;5068982;28;20534;-68
2022/12/30 01:17:40;;;;;;;67.20;37.88;;;;;;;2.21;100.00;100738.41;5067297;28;20041;-68
2022/12/30 01:20:07;;;;;;;71.40;38.58;;;;;;;2.21;100.00;100741.03;5068840;28;20029;-70
2022/12/30 01:22:33;;;;;;;66.13;37.30;;;;;;;2.25;100.00;100740.81;5066548;28;20063;-69
2022/12/30 01:24:58;;;;;;;68.35;39.13;;;;;;;2.28;100.00;100740.69;5068735;28;20400;-69
2022/12/30 01:27:23;;;;;;;62.03;38.22;;;;;;;2.31;100.00;100743.19;5068351;28;20024;-69
2022/12/30 01:29:50;;;;;;;63.05;36.47;;;;;;;2.32;100.00;100734.31;5068350;28;20020;-69
2022/12/30 01:32:18;;;;;;;56.90;33.67;;;;;;;2.33;100.00;100727.25;5068857;28;20025;-69
2022/12/30 01:34:44;;;;;;;61.20;36.60;;;;;;;2.36;100.00;100727.09;5068808;28;20467;-70
2022/12/30 01:37:10;;;;;;;63.90;34.90;;;;;;;2.40;100.00;100726.00;5068485;28;20066;-69
2022/12/30 01:39:35;;;;;;;58.65;36.35;;;;;;;2.33;100.00;100722.78;5066876;28;20032;-69
2022/12/30 01:42:02;;;;;;;61.67;35.15;;;;;;;2.30;100.00;100699.09;5063773;28;20387;-69
2022/12/30 01:44:46;;;;;;;63.75;36.33;;;;;;;2.47;100.00;100727.41;5056689;28;20043;-69
2022/12/30 01:47:24;;;;;;;65.57;36.45;;;;;;;2.50;100.00;100713.16;5067852;28;20051;-69
2022/12/30 01:49:52;;;;;;;58.50;33.28;;;;;;;2.51;100.00;100728.97;5068370;28;20032;-69
2022/12/30 01:52:23;;;;;;;63.13;36.88;;;;;;;2.52;100.00;100728.06;5068011;28;20463;-69
2022/12/30 01:54:51;;;;;;;63.60;35.80;;;;;;;2.38;100.00;100704.91;5059660;28;20032;-68
2022/12/30 01:57:19;;;;;;;60.95;36.35;;;;;;;2.54;100.00;100723.53;5049761;28;20032;-68
2022/12/30 01:59:46;;;;;;;55.83;32.75;;;;;;;2.59;100.00;100720.69;5067604;28;20522;-69
2022/12/30 02:02:11;;;;;;;64.68;36.28;;;;;;;2.60;100.00;100719.72;5066983;28;20029;-68
2022/12/30 02:04:37;;;;;;;64.63;35.75;;;;;;;2.63;100.00;100717.81;5067678;28;20020;-68
2022/12/30 02:07:17;;;;;;;59.28;33.55;;;;;;;2.65;100.00;100721.25;5066581;28;20037;-68
2022/12/30 02:09:44;;;;;;;60.58;35.05;;;;;;;2.60;100.00;100701.19;5067206;28;20029;-68
2022/12/30 02:12:10;;;;;;;54.13;33.83;;;;;;;2.69;100.00;100708.69;5067035;28;20038;-68
2022/12/30 02:14:38;;;;;;;57.88;34.08;;;;;;;2.65;100.00;100701.84;5067299;28;20390;-69
2022/12/30 02:17:30;;;;;;;54.55;32.47;;;;;;;2.77;100.00;100706.53;5066663;28;20119;-68
2022/12/30 02:20:37;;;;;;;55.30;33.90;;;;;;;2.80;100.00;100706.38;5067097;28;20435;-69
2022/12/30 02:23:30;;;;;;;56.97;34.13;;;;;;;2.78;100.00;100695.88;5066616;28;20438;-68
2022/12/30 02:26:14;;;;;;;57.65;33.47;;;;;;;2.83;100.00;100700.94;5066827;28;20021;-69
2022/12/30 02:28:57;;;;;;;53.85;32.53;;;;;;;2.83;100.00;100700.94;5067415;28;20025;-68
2022/12/30 02:31:31;;;;;;;56.00;33.13;;;;;;;2.87;100.00;100702.50;5066781;28;20032;-69
2022/12/30 02:34:21;;;;;;;52.58;31.90;;;;;;;2.85;100.00;100688.47;5066915;28;20090;-69
2022/12/30 02:37:02;;;;;;;55.92;30.98;;;;;;;2.85;100.00;100701.69;5067246;28;20143;-68
2022/12/30 02:39:44;;;;;;;53.63;32.20;;;;;;;2.81;100.00;100692.19;5066384;28;20036;-68
2022/12/30 02:45:22;;;;;;;50.55;31.73;;;;;;;2.83;100.00;100687.69;5066266;28;20034;-69
2022/12/30 02:47:53;;;;;;;50.00;30.75;;;;;;;2.85;100.00;100683.16;5067158;28;20143;-69
2022/12/30 02:53:13;;;;;;;50.22;30.02;;;;;;;2.81;100.00;100660.44;5066777;28;20089;-68
2022/12/30 02:55:39;;;;;;;53.13;33.15;;;;;;;2.79;100.00;100665.78;5066985;28;20116;-68
2022/12/30 02:58:04;;;;;;;56.97;34.00;;;;;;;2.94;100.00;100686.22;5066575;28;20024;-68
2022/12/30 03:04:02;;;;;;;51.90;31.20;;;;;;;3.02;100.00;100684.03;5066822;28;20580;-68
2022/12/30 03:07:15;;;;;;;50.72;31.17;;;;;;;3.01;100.00;100678.81;5065142;28;20032;-68
2022/12/30 03:12:57;;;;;;;50.90;31.25;;;;;;;3.05;100.00;100683.88;5065154;28;20090;-68
2022/12/30 03:15:31;;;;;;;54.13;31.70;;;;;;;3.03;100.00;100675.13;5066236;28;20043;-68
2022/12/30 03:17:57;;;;;;;53.47;31.67;;;;;;;2.96;100.00;100651.72;5067351;28;20551;-69
2022/12/30 03:20:24;;;;;;;53.38;30.95;;;;;;;3.08;100.00;100675.75;5067188;28;20881;-68
2022/12/30 03:28:26;;;;;;;54.00;32.17;;;;;;;3.03;100.00;100655.75;5067034;28;20031;-69
2022/12/30 03:30:58;;;;;;;54.00;30.50;;;;;;;3.20;100.00;100668.97;5065296;28;20044;-68
2022/12/30 03:33:26;;;;;;;50.88;32.15;;;;;;;3.02;100.00;100649.59;5066551;28;20047;-69
2022/12/30 03:35:57;;;;;;;57.00;32.47;;;;;;;3.14;100.00;100654.25;5067047;28;20031;-69
2022/12/30 03:38:31;;;;;;;47.10;29.98;;;;;;;3.20;100.00;100661.03;5066025;28;20035;-69
2022/12/30 03:40:59;;;;;;;49.73;31.20;;;;;;;3.25;100.00;100656.31;5064727;28;20037;-69
2022/12/30 03:43:27;;;;;;;51.70;31.38;;;;;;;3.27;100.00;100671.22;5065976;28;20033;-69
2022/12/30 03:45:52;;;;;;;51.28;30.25;;;;;;;3.12;100.00;100634.06;5066686;28;20711;-69
2022/12/30 03:48:17;;;;;;;49.45;30.33;;;;;;;3.29;100.00;100663.19;5065522;28;20128;-69
2022/12/30 03:50:44;;;;;;;48.78;31.90;;;;;;;3.30;100.00;100660.47;5067391;28;20367;-69
2022/12/30 03:53:10;;;;;;;52.85;30.98;;;;;;;3.33;100.00;100662.97;5070798;28;20391;-69
2022/12/30 03:55:35;;;;;;;49.65;31.10;;;;;;;3.32;100.00;100653.28;5069090;28;20032;-69
2022/12/30 03:58:00;;;;;;;51.33;30.45;;;;;;;3.30;100.00;100644.56;5069781;28;20056;-69
2022/12/30 04:00:26;;;;;;;48.88;30.70;;;;;;;3.34;100.00;100646.09;5069547;28;20039;-69
2022/12/30 04:02:51;;;;;;;48.42;30.50;;;;;;;3.38;100.00;100649.44;5069858;28;20028;-68
2022/12/30 04:05:17;;;;;;;49.17;31.13;;;;;;;3.26;100.00;100628.91;5069549;28;20028;-69
2022/12/30 04:07:42;;;;;;;48.78;30.73;;;;;;;3.31;100.00;100635.66;5070524;28;20037;-69
2022/12/30 04:10:08;;;;;;;54.25;32.53;;;;;;;3.48;100.00;100659.47;5070388;28;20035;-69
2022/12/30 04:12:34;;;;;;;50.20;32.22;;;;;;;3.48;100.00;100659.47;5070582;28;20033;-69
2022/12/30 04:14:59;;;;;;;54.38;31.38;;;;;;;3.52;100.00;100653.06;5069699;28;20384;-69
2022/12/30 04:17:25;;;;;;;50.63;30.77;;;;;;;3.54;100.00;100656.50;5070463;28;20115;-69
2022/12/30 04:19:50;;;;;;;48.15;30.50;;;;;;;3.56;100.00;100651.13;5070659;28;20028;-68
2022/12/30 04:22:16;;;;;;;49.95;30.95;;;;;;;3.59;100.00;100657.13;5070601;28;20044;-69
2022/12/30 04:24:41;;;;;;;52.53;31.70;;;;;;;3.62;100.00;100661.38;5069982;28;20028;-69
2022/12/30 04:27:07;;;;;;;47.10;30.65;;;;;;;3.64;100.00;100662.19;5069630;28;20346;-69
2022/12/30 04:29:32;;;;;;;54.33;32.20;;;;;;;3.66;100.00;100654.97;5068698;28;20032;-70
2022/12/30 04:31:57;;;;;;;50.92;31.30;;;;;;;3.67;100.00;100654.03;5068603;28;20023;-70
2022/12/30 04:34:23;;;;;;;50.83;30.92;;;;;;;3.70;100.00;100656.50;5070664;28;20569;-70
2022/12/30 04:36:49;;;;;;;50.65;30.63;;;;;;;3.71;100.00;100653.78;5071032;28;20494;-70
2022/12/30 04:39:14;;;;;;;47.75;31.02;;;;;;;3.73;100.00;100657.22;5069823;28;20020;-70
2022/12/30 04:41:40;;;;;;;50.45;30.42;;;;;;;3.59;100.00;100620.00;5069903;28;20035;-69
2022/12/30 04:44:06;;;;;;;50.55;31.42;;;;;;;3.78;100.00;100651.66;5070464;28;20032;-70
2022/12/30 04:46:31;;;;;;;51.05;30.83;;;;;;;3.81;100.00;100652.34;5070380;28;20049;-69
2022/12/30 04:48:57;;;;;;;49.45;31.70;;;;;;;3.61;100.00;100615.44;5070089;28;20063;-70
2022/12/30 04:51:23;;;;;;;49.08;31.05;;;;;;;3.83;100.00;100649.59;5070007;28;20104;-70
2022/12/30 04:53:48;;;;;;;49.22;31.15;;;;;;;3.83;100.00;100646.94;5070115;28;20024;-69
2022/12/30 04:56:14;;;;;;;54.80;31.70;;;;;;;3.85;100.00;100653.91;5068818;28;20020;-70
2022/12/30 04:58:39;;;;;;;50.58;30.20;;;;;;;3.79;100.00;100637.44;5068785;28;20098;-67
2022/12/30 05:01:05;;;;;;;51.63;32.15;;;;;;;3.88;100.00;100653.72;5068676;28;20081;-69
2022/12/30 05:03:31;;;;;;;47.03;30.30;;;;;;;3.89;100.00;100651.91;5068722;28;20025;-69
2022/12/30 05:05:56;;;;;;;51.88;31.88;;;;;;;3.86;100.00;100647.66;5073640;28;20035;-69
2022/12/30 05:08:22;;;;;;;52.63;32.53;;;;;;;3.83;100.00;100638.97;5063722;28;20197;-68
2022/12/30 05:10:48;;;;;;;52.65;31.70;;;;;;;3.91;100.00;100661.53;5065939;28;20028;-69
2022/12/30 05:13:14;;;;;;;53.00;31.55;;;;;;;3.88;100.00;100650.22;5065100;28;20020;-68
2022/12/30 05:15:40;;;;;;;52.33;32.75;;;;;;;3.92;100.00;100655.28;5069135;28;20032;-68
2022/12/30 05:18:05;;;;;;;50.03;31.98;;;;;;;3.93;100.00;100651.66;5069042;28;20051;-68
2022/12/30 05:20:31;;;;;;;53.47;31.52;;;;;;;3.92;100.00;100649.09;5070599;28;20116;-68
2022/12/30 05:22:56;;;;;;;49.20;31.85;;;;;;;3.84;100.00;100628.28;5068784;28;20066;-68
2022/12/30 05:28:06;;;;;;;;;;;;;;;4.04;100.00;100654.59;5069733;28;20031;-69
2022/12/30 05:30:31;;;;;;;53.13;31.77;;;;;;;4.12;100.00;100670.06;5069220;28;19912;-68
2022/12/30 05:32:57;;;;;;;53.58;31.90;;;;;;;4.07;100.00;100643.78;5067531;28;20020;-69
2022/12/30 05:35:23;;;;;;;47.28;31.30;;;;;;;4.09;100.00;100647.22;5065551;28;20491;-69
2022/12/30 05:37:48;;;;;;;50.45;31.60;;;;;;;4.15;100.00;100653.97;5069549;28;20044;-69
2022/12/30 05:40:14;;;;;;;52.97;33.00;;;;;;;4.26;100.00;100668.34;5068561;28;20429;-69
2022/12/30 05:42:39;;;;;;;53.20;32.70;;;;;;;4.17;100.00;100654.75;5078237;28;20040;-68
2022/12/30 05:45:06;;;;;;;51.15;32.33;;;;;;;4.26;100.00;100660.38;5075135;28;20025;-68
2022/12/30 05:47:32;;;;;;;51.80;30.80;;;;;;;4.21;100.00;100653.63;5070732;28;20075;-69
2022/12/30 05:49:57;;;;;;;54.20;32.83;;;;;;;4.29;100.00;100654.91;5085721;28;20067;-67
2022/12/30 05:52:23;;;;;;;55.45;34.63;;;;;;;4.35;100.00;100657.22;5069059;28;20032;-67
2022/12/30 05:54:48;;;;;;;56.13;34.85;;;;;;;4.23;100.00;100631.34;5067183;28;20032;-68
2022/12/30 05:57:14;;;;;;;50.40;33.80;;;;;;;4.40;100.00;100659.63;5080529;28;20028;-67
2022/12/30 05:59:40;;;;;;;55.40;34.55;;;;;;;4.39;100.00;100652.59;5070385;28;20028;-68
2022/12/30 06:02:06;;;;;;;56.20;34.47;;;;;;;4.41;100.00;100648.91;5083782;28;20021;-68
2022/12/30 06:04:31;;;;;;;53.88;33.33;;;;;;;4.39;100.00;100639.31;5067844;28;20443;-68
2022/12/30 06:06:57;;;;;;;63.90;35.70;;;;;;;4.44;100.00;100647.88;5067384;28;20029;-68
2022/12/30 06:09:22;;;;;;;55.47;34.72;;;;;;;4.43;100.00;100640.84;5067972;28;20032;-68
2022/12/30 06:11:48;;;;;;;56.65;34.63;;;;;;;4.44;100.00;100648.72;5068180;28;20107;-68
2022/12/30 06:14:15;;;;;;;62.33;34.20;;;;;;;4.55;100.00;100661.41;5066705;28;20031;-68
2022/12/30 06:16:42;;;;;;;52.67;32.83;;;;;;;4.55;100.00;100661.41;5070665;28;20398;-68
2022/12/30 06:19:08;;;;;;;53.85;33.30;;;;;;;4.50;100.00;100647.50;5067823;28;20478;-68
2022/12/30 06:21:34;;;;;;;54.90;32.67;;;;;;;4.59;100.00;100658.44;5066180;28;20106;-68
2022/12/30 06:24:00;;;;;;;52.92;33.95;;;;;;;4.61;100.00;100669.84;5076504;28;20031;-68
2022/12/30 06:26:26;;;;;;;48.15;32.22;;;;;;;4.66;100.00;100669.59;5068575;28;20106;-68
2022/12/30 06:28:52;;;;;;;61.65;36.63;;;;;;;4.58;100.00;100664.72;5070383;28;20201;-68
2022/12/30 06:31:17;;;;;;;64.63;40.65;;;;;;;4.62;100.00;100666.25;5071325;28;20038;-68
2022/12/30 06:33:43;;;;;;;73.68;44.63;;;;;;;4.66;100.00;100685.53;5082343;28;20130;-68
2022/12/30 06:36:09;;;;;;;64.32;40.53;;;;;;;4.58;100.00;100683.31;5088640;28;20032;-68
2022/12/30 06:38:35;;;;;;;59.65;39.45;;;;;;;4.65;100.00;100684.66;5087141;28;20028;-68
2022/12/30 06:41:00;;;;;;;58.63;35.97;;;;;;;4.65;100.00;100692.63;5062108;28;20044;-69
2022/12/30 06:43:28;;;;;;;54.28;34.63;;;;;;;4.60;100.00;100685.88;5067947;28;20055;-69
2022/12/30 06:45:53;;;;;;;51.88;32.33;;;;;;;4.59;100.00;100695.63;5066427;28;20453;-69
2022/12/30 06:48:19;;;;;;;54.90;34.47;;;;;;;4.56;100.00;100694.97;5067051;28;20093;-68
2022/12/30 06:50:44;;;;;;;50.50;33.33;;;;;;;4.54;100.00;100691.53;5066601;28;20114;-68
2022/12/30 06:53:10;;;;;;;55.17;35.15;;;;;;;4.47;100.00;100690.19;5068104;28;20055;-68
2022/12/30 06:55:36;;;;;;;60.85;37.58;;;;;;;4.47;100.00;100682.22;5067220;28;20043;-68
2022/12/30 06:58:02;;;;;;;58.13;38.17;;;;;;;4.42;100.00;100692.25;5068112;28;20135;-68
2022/12/30 07:00:28;;;;;;;65.13;40.25;;;;;;;4.47;100.00;100698.16;5065903;28;20032;-68
2022/12/30 07:02:54;;;;;;;61.92;38.53;;;;;;;4.46;100.00;100707.06;5066717;28;20036;-68
2022/12/30 07:05:20;;;;;;;61.95;39.38;;;;;;;4.41;100.00;100703.81;5066433;28;20031;-68
2022/12/30 07:07:46;;;;;;;60.83;38.22;;;;;;;4.37;100.00;100699.63;5066875;28;21027;-68
2022/12/30 07:10:11;;;;;;;61.08;39.35;;;;;;;4.31;100.00;100689.34;5068630;28;20029;-68
2022/12/30 07:12:37;;;;;;;59.17;37.97;;;;;;;4.47;100.00;100714.09;5066440;28;20047;-68
2022/12/30 07:15:03;;;;;;;55.20;36.28;;;;;;;4.48;100.00;100716.66;5058453;28;20067;-68
2022/12/30 07:17:28;;;;;;;58.53;37.05;;;;;;;4.36;100.00;100697.91;5053451;28;20040;-69
2022/12/30 07:19:53;;;;;;;58.05;36.53;;;;;;;4.50;100.00;100724.53;5045759;28;20025;-69
2022/12/30 07:22:19;;;;;;;51.38;34.05;;;;;;;4.47;100.00;100728.22;5046646;28;20029;-69
2022/12/30 07:24:45;;;;;;;53.60;35.25;;;;;;;4.50;100.00;100730.72;5045711;28;20108;-68
2022/12/30 07:27:11;;;;;;;56.42;33.97;;;;;;;4.47;100.00;100725.56;5048392;28;20028;-69
2022/12/30 07:29:38;;;;;;;59.53;35.63;;;;;;;4.48;100.00;100724.63;5050235;28;20029;-70
2022/12/30 07:32:05;;;;;;;61.08;36.58;;;;;;;4.51;100.00;100728.88;5050146;28;20112;-69
2022/12/30 07:34:30;;;;;;;57.38;36.08;;;;;;;4.54;100.00;100732.25;5049450;28;20036;-70
2022/12/30 07:36:55;;;;;;;63.83;37.92;;;;;;;4.56;100.00;100734.81;5051264;28;20035;-69
2022/12/30 07:39:21;;;;;;;72.35;41.13;;;;;;;4.57;100.00;100737.38;5049661;28;20107;-69
2022/12/30 07:41:46;;;;;;;66.95;41.30;;;;;;;4.39;100.00;100705.72;5054168;28;20040;-70
2022/12/30 07:44:11;;;;;;;72.13;41.28;;;;;;;4.67;100.00;100751.84;5071009;28;20036;-70
2022/12/30 07:46:37;;;;;;;80.15;45.00;;;;;;;4.67;100.00;100743.88;5070811;28;20052;-69
2022/12/30 07:49:03;;;;;;;81.35;45.25;;;;;;;4.70;100.00;100751.69;5070913;28;20059;-69
2022/12/30 07:51:28;;;;;;;76.00;42.35;;;;;;;4.71;100.00;100760.53;5070833;28;20056;-69
2022/12/30 07:53:54;;;;;;;64.25;39.08;;;;;;;4.60;100.00;100739.00;5070511;28;20021;-69
2022/12/30 07:56:19;;;;;;;62.80;38.25;;;;;;;4.68;100.00;100763.34;5068237;28;20478;-69
2022/12/30 07:58:45;;;;;;;71.03;42.40;;;;;;;4.73;100.00;100778.06;5069608;28;20028;-69
2022/12/30 08:01:13;;;;;;;61.92;39.20;;;;;;;4.66;100.00;100766.09;5069286;28;20099;-69
2022/12/30 08:03:40;;;;;;;64.20;39.67;;;;;;;4.69;100.00;100781.00;5069784;28;20040;-70
2022/12/30 08:06:09;;;;;;;61.47;37.72;;;;;;;4.81;100.00;100790.06;5070434;28;20032;-70
2022/12/30 08:08:35;;;;;;;67.85;40.78;;;;;;;4.78;100.00;100797.25;5070674;28;20032;-69
2022/12/30 08:11:01;;;;;;;78.25;42.78;;;;;;;4.75;100.00;100797.44;5070130;28;20124;-69
2022/12/30 08:13:29;;;;;;;72.32;39.92;;;;;;;4.76;100.00;100803.59;5070191;28;20016;-69
2022/12/30 08:15:55;;;;;;;62.72;37.67;;;;;;;4.74;100.00;100803.69;5068867;28;20029;-69
2022/12/30 08:18:20;;;;;;;65.68;39.33;;;;;;;4.74;100.00;100810.78;5070471;28;20035;-69
2022/12/30 08:20:45;;;;;;;61.78;38.08;;;;;;;4.70;100.00;100812.78;5069280;28;20040;-69
2022/12/30 08:23:11;;;;;;;62.72;37.13;;;;;;;4.69;100.00;100808.44;5069920;28;20375;-69
2022/12/30 08:25:36;;;;;;;61.95;37.58;;;;;;;4.65;100.00;100806.03;5070342;28;20040;-69
2022/12/30 08:28:02;;;;;;;63.78;38.75;;;;;;;4.70;100.00;100818.09;5069140;28;20466;-69
2022/12/30 08:30:27;;;;;;;62.95;37.63;;;;;;;4.68;100.00;100813.81;5068522;28;20100;-68
2022/12/30 08:32:53;;;;;;;59.28;37.08;;;;;;;4.57;100.00;100805.56;5070262;28;20028;-70
2022/12/30 08:35:18;;;;;;;65.18;37.13;;;;;;;4.65;100.00;100824.63;5069936;28;20545;-69
2022/12/30 08:37:44;;;;;;;60.10;37.58;;;;;;;4.68;100.00;100821.78;5068429;28;20432;-69
2022/12/30 08:40:10;;;;;;;60.83;36.78;;;;;;;4.49;100.00;100799.84;5069655;28;20036;-69
2022/12/30 08:42:36;;;;;;;61.58;39.10;;;;;;;4.68;100.00;100833.25;5069333;28;20367;-69
2022/12/30 08:45:04;;;;;;;64.18;38.58;;;;;;;4.69;100.00;100844.75;5069717;28;20044;-69
2022/12/30 08:47:29;;;;;;;66.38;39.55;;;;;;;4.66;100.00;100836.94;5068811;28;20079;-70
2022/12/30 08:49:55;;;;;;;69.18;39.75;;;;;;;4.52;100.00;100810.31;5069587;28;20075;-69
2022/12/30 08:52:20;;;;;;;71.88;43.35;;;;;;;4.53;100.00;100819.97;5068178;28;20021;-69
2022/12/30 08:54:46;;;;;;;76.55;44.55;;;;;;;4.62;100.00;100851.34;5068733;28;20360;-70
2022/12/30 08:57:12;;;;;;;73.22;42.10;;;;;;;4.50;100.00;100820.13;5068294;28;20025;-69
2022/12/30 08:59:38;;;;;;;68.15;41.45;;;;;;;4.44;100.00;100813.38;5068182;28;20741;-69
2022/12/30 09:02:03;;;;;;;71.50;41.38;;;;;;;4.57;100.00;100838.31;5066051;28;20483;-70
2022/12/30 09:04:29;;;;;;;69.47;42.33;;;;;;;4.69;100.00;100850.06;5067858;28;20047;-69
2022/12/30 09:06:54;;;;;;;79.00;41.22;;;;;;;4.64;100.00;100846.78;5067395;28;20029;-70
2022/12/30 09:09:20;;;;;;;76.75;42.58;;;;;;;4.58;100.00;100832.06;5060231;28;20033;-69
2022/12/30 09:11:45;;;;;;;78.45;43.28;;;;;;;4.66;100.00;100842.25;5066013;28;20021;-69
2022/12/30 09:14:14;;;;;;;69.45;40.97;;;;;;;4.69;100.00;100850.06;5066875;28;20032;-68
2022/12/30 09:16:40;;;;;;;79.20;43.20;;;;;;;4.77;100.00;100861.09;5064783;28;20082;-68
2022/12/30 09:19:06;;;;;;;79.95;45.10;;;;;;;4.56;100.00;100825.13;5068979;28;20025;-68
2022/12/30 09:21:31;;;;;;;77.68;44.22;;;;;;;4.78;100.00;100862.84;5068163;28;20032;-68
2022/12/30 09:23:57;;;;;;;76.57;43.85;;;;;;;4.81;100.00;100870.66;5068640;28;20446;-69
2022/12/30 09:26:24;;;;;;;72.68;42.70;;;;;;;4.71;100.00;100853.50;5068628;28;20016;-69
2022/12/30 09:28:50;;;;;;;77.70;44.13;;;;;;;4.82;100.00;100861.72;5068851;28;20025;-69
2022/12/30 09:31:16;;;;;;;79.93;45.50;;;;;;;4.84;100.00;100869.59;5068359;28;20037;-69
2022/12/30 09:33:41;;;;;;;74.35;43.55;;;;;;;4.86;100.00;100873.88;5068481;28;20013;-68
2022/12/30 09:36:07;;;;;;;74.00;43.03;;;;;;;4.85;100.00;100874.84;5068611;28;20045;-69
2022/12/30 09:38:33;;;;;;;74.55;43.60;;;;;;;4.80;100.00;100855.63;5068016;28;20470;-68
2022/12/30 09:41:10;;;;;;;83.45;48.60;;;;;;;4.95;100.00;100867.19;5068934;28;20489;-69
2022/12/30 09:44:03;;;;;;;93.18;52.00;;;;;;;4.94;100.00;100857.53;5067491;28;20051;-69
2022/12/30 09:46:37;;;;;;;96.70;52.63;;;;;;;4.97;100.00;100844.94;5067602;28;20084;-69
2022/12/30 09:49:04;;;;;;;;;;;;;;;4.98;100.00;100849.28;5068371;28;20032;-69
2022/12/30 09:51:40;;;;;;;82.70;44.85;;;;;;;4.90;100.00;100827.59;5067857;28;20251;-69
2022/12/30 09:54:17;;;;;;;77.45;44.03;;;;;;;5.05;100.00;100850.66;5067875;28;20019;-68
2022/12/30 09:56:46;;;;;;;87.57;48.17;;;;;;;5.10;100.00;100845.06;5068026;28;20028;-68
2022/12/30 09:59:19;;;;;;;83.80;49.08;;;;;;;5.11;100.00;100846.78;5067985;28;20024;-69
2022/12/30 10:01:53;;;;;;;74.57;44.25;;;;;;;5.13;100.00;100850.22;5066472;28;20478;-68
2022/12/30 10:04:20;;;;;;;79.97;45.38;;;;;;;5.13;100.00;100845.78;5067393;28;20039;-68
2022/12/30 10:07:02;;;;;;;73.57;43.45;;;;;;;5.16;100.00;100840.25;5067343;28;20128;-69
2022/12/30 10:09:37;;;;;;;80.07;46.50;;;;;;;5.13;100.00;100835.13;5067486;28;20055;-69
2022/12/30 10:12:40;;;;;;;82.47;47.45;;;;;;;5.16;100.00;100829.63;5065909;28;20059;-70
2022/12/30 10:15:33;;;;;;;84.25;46.08;;;;;;;5.19;100.00;100826.78;5067814;28;20063;-69
2022/12/30 10:18:05;;;;;;;79.30;45.97;;;;;;;5.20;100.00;100825.88;5067820;28;20050;-70
2022/12/30 10:20:51;;;;;;;88.85;50.75;;;;;;;5.21;100.00;100818.72;5066485;28;20044;-69
2022/12/30 10:23:23;;;;;;;83.13;47.95;;;;;;;5.24;100.00;100818.53;5064401;28;20399;-69
2022/12/30 10:26:13;;;;;;;82.43;48.42;;;;;;;5.26;100.00;100822.84;5067255;28;20040;-69
2022/12/30 10:28:46;;;;;;;77.97;46.90;;;;;;;5.27;100.00;100824.56;5067401;28;20101;-69
2022/12/30 10:31:20;;;;;;;85.03;48.17;;;;;;;5.24;100.00;100816.75;5072655;28;20024;-68
2022/12/30 10:33:47;;;;;;;;;;;;;;;5.28;100.00;100822.72;5067027;28;20483;-68
2022/12/30 10:36:32;;;;;;;79.05;46.47;;;;;;;5.21;100.00;100810.75;5065794;28;19904;-69
2022/12/30 10:39:16;;;;;;;78.18;44.65;;;;;;;5.25;100.00;100807.81;5066790;28;20024;-69
2022/12/30 10:41:56;;;;;;;76.63;44.20;;;;;;;5.38;100.00;100818.63;5064675;28;20374;-69
2022/12/30 10:44:44;;;;;;;72.57;43.83;;;;;;;5.39;100.00;100815.88;5066978;28;20024;-69
2022/12/30 10:47:27;;;;;;;79.90;45.47;;;;;;;5.44;100.00;100816.44;5054698;28;20474;-69
2022/12/30 10:50:14;;;;;;;82.70;47.85;;;;;;;5.50;100.00;100818.75;5063449;28;20483;-69
2022/12/30 10:52:39;;;;;;;91.75;49.30;;;;;;;5.54;100.00;100814.06;5064613;28;20016;-69
2022/12/30 10:55:44;;;;;;;82.32;47.03;;;;;;;5.58;100.00;100811.16;5065042;28;20024;-69
2022/12/30 10:58:19;;;;;;;79.93;47.63;;;;;;;5.63;100.00;100817.06;5053017;28;20045;-69
2022/12/30 11:00:44;;;;;;;83.05;47.17;;;;;;;5.67;100.00;100815.94;5050765;28;20458;-69
2022/12/30 11:03:46;;;;;;;82.32;49.70;;;;;;;5.71;100.00;100814.78;5068904;28;20020;-68
2022/12/30 11:06:24;;;;;;;93.35;53.38;;;;;;;5.76;100.00;100806.53;5069250;28;20044;-68
2022/12/30 11:08:52;;;;;;;92.95;52.45;;;;;;;5.83;100.00;100806.09;5057761;28;20029;-68
2022/12/30 11:11:18;;;;;;;90.28;53.35;;;;;;;5.93;100.00;100803.75;5066263;28;20024;-68
2022/12/30 11:16:41;;;;;;;93.93;55.90;;;;;;;6.10;100.00;100807.06;5054669;28;20437;-68
2022/12/30 11:19:23;;;;;;;94.53;54.35;;;;;;;6.16;100.00;100806.69;5077961;28;20131;-68
2022/12/30 11:21:53;;;;;;;97.63;60.08;;;;;;;6.22;100.00;100808.97;5074420;28;20512;-68
2022/12/30 11:24:18;;;;;;;101.72;61.42;;;;;;;6.32;100.00;100817.28;5083039;28;20356;-68
2022/12/30 11:26:49;;;;;;;94.85;53.65;;;;;;;6.34;100.00;100818.00;5070711;28;20052;-68
2022/12/30 11:29:22;;;;;;;91.10;53.00;;;;;;;6.23;100.00;100781.38;5070756;28;20051;-68
2022/12/30 11:31:51;;;;;;;89.53;53.25;;;;;;;6.29;100.00;100789.00;5070057;28;20048;-68
2022/12/30 11:34:25;;;;;;;91.55;54.55;;;;;;;6.45;100.00;100810.22;5075142;28;20462;-68
2022/12/30 11:36:51;;;;;;;97.10;56.33;;;;;;;6.33;100.00;100785.22;5072353;28;20030;-68
2022/12/30 11:39:22;;;;;;;93.85;56.03;;;;;;;6.53;100.00;100808.78;5067001;28;20478;-68
2022/12/30 11:41:58;;;;;;;94.55;56.00;;;;;;;6.59;100.00;100802.22;5067651;28;20025;-68
2022/12/30 11:44:31;;;;;;;93.45;55.33;;;;;;;6.64;100.00;100800.09;5068832;28;21272;-68
2022/12/30 11:47:10;;;;;;;91.25;53.35;;;;;;;6.64;100.00;100792.94;5070447;28;20097;-68
2022/12/30 11:49:38;;;;;;;89.72;52.72;;;;;;;6.73;100.00;100805.69;5055921;28;20498;-69
2022/12/30 11:52:03;;;;;;;84.90;52.75;;;;;;;6.82;100.00;100812.25;5067179;28;20111;-69
2022/12/30 11:54:37;;;;;;;87.53;50.53;;;;;;;6.91;100.00;100812.50;5051959;28;20108;-69
2022/12/30 11:57:17;;;;;;;86.78;51.78;;;;;;;6.96;100.00;100806.84;5063526;28;20047;-69
2022/12/30 11:59:46;;;;;;;88.80;50.65;;;;;;;7.08;100.00;100814.06;5055375;28;20139;-69
2022/12/30 12:02:44;;;;;;;82.10;48.70;;;;;;;7.17;99.47;100809.94;5067764;28;20535;-68
2022/12/30 12:05:22;;;;;;;89.85;51.72;;;;;;;7.22;99.20;100816.66;5062418;28;20066;-68
2022/12/30 12:07:50;;;;;;;89.88;50.10;;;;;;;7.16;98.98;100797.56;5074669;28;20062;-68
2022/12/30 12:10:24;;;;;;;85.60;51.58;;;;;;;7.22;98.21;100787.31;5074419;28;20032;-70
2022/12/30 12:12:55;;;;;;;90.30;52.45;;;;;;;7.40;98.02;100818.13;5085087;28;20377;-68
2022/12/30 12:15:29;;;;;;;85.60;52.50;;;;;;;7.46;98.37;100817.72;5074417;28;20027;-68